Time;durP1;ratioP1;P1;durP2;ratioP2;P2;SDS_P1;SDS_P2;PMS_P1;PMS_P2;Temp;Humidity;BMP_temperature;BMP_pressure;BME280_temperature;BME280_humidity;BME280_pressure;Samples;Min_cycle;Max_cycle;Signal;HPM_P1;HPM_P2
2023/06/24 00:01:25;;;;;;;7.43;5.32;;;18.70;67.60;;;;;;4982106;28;20088;-74
2023/06/24 00:03:52;;;;;;;7.43;5.20;;;18.60;67.80;;;;;;4997104;28;20356;-74
2023/06/24 00:06:19;;;;;;;8.60;5.80;;;18.60;68.00;;;;;;4984096;28;20053;-75
2023/06/24 00:08:45;;;;;;;9.52;5.78;;;18.60;68.20;;;;;;4989765;28;20022;-74
2023/06/24 00:11:13;;;;;;;8.50;5.55;;;18.60;68.40;;;;;;4988840;28;20554;-75
2023/06/24 00:13:39;;;;;;;10.25;6.18;;;18.50;68.40;;;;;;4991551;28;20133;-74
2023/06/24 00:16:06;;;;;;;9.43;6.45;;;18.50;68.80;;;;;;4985639;28;20076;-74
2023/06/24 00:18:35;;;;;;;9.43;5.82;;;18.50;68.90;;;;;;4982560;28;20038;-75
2023/06/24 00:21:02;;;;;;;8.93;5.68;;;18.40;69.10;;;;;;4980011;28;20018;-75
2023/06/24 00:23:30;;;;;;;9.75;6.60;;;18.40;69.10;;;;;;4990483;28;20049;-74
2023/06/24 00:25:56;;;;;;;8.75;6.22;;;18.50;69.10;;;;;;4983984;28;20034;-75
2023/06/24 00:28:22;;;;;;;8.68;5.45;;;18.30;69.30;;;;;;4985195;28;20037;-74
2023/06/24 00:30:48;;;;;;;9.90;6.60;;;18.40;69.60;;;;;;4991705;28;20133;-74
2023/06/24 00:33:15;;;;;;;9.85;6.13;;;18.40;69.50;;;;;;4989803;28;20046;-74
2023/06/24 00:35:42;;;;;;;9.27;5.88;;;18.30;69.60;;;;;;4989383;28;20056;-74
2023/06/24 00:38:08;;;;;;;8.88;5.70;;;18.30;69.90;;;;;;4995470;28;20046;-74
2023/06/24 00:40:34;;;;;;;9.90;6.55;;;18.30;70.00;;;;;;4997976;28;20081;-74
2023/06/24 00:43:01;;;;;;;9.25;6.13;;;18.40;70.00;;;;;;4989814;28;20039;-74
2023/06/24 00:45:30;;;;;;;9.35;6.72;;;18.30;70.00;;;;;;4988247;28;20061;-74
2023/06/24 00:47:56;;;;;;;8.98;6.03;;;18.30;70.00;;;;;;5004869;28;20041;-74
2023/06/24 00:50:22;;;;;;;10.18;7.20;;;18.10;70.20;;;;;;5012998;28;20029;-74
2023/06/24 00:52:49;;;;;;;10.15;6.80;;;18.10;70.20;;;;;;5000742;28;20046;-75
2023/06/24 00:55:16;;;;;;;9.98;6.82;;;18.10;70.50;;;;;;5000439;28;20029;-74
2023/06/24 00:57:44;;;;;;;10.27;7.28;;;18.10;70.70;;;;;;5008924;28;20461;-74
2023/06/24 01:00:15;;;;;;;10.68;6.90;;;18.10;70.80;;;;;;5009168;28;20095;-74
2023/06/24 01:02:42;;;;;;;10.10;7.00;;;18.00;70.90;;;;;;5012106;28;20037;-74
2023/06/24 01:05:09;;;;;;;9.93;6.93;;;18.00;71.00;;;;;;5011603;28;20386;-75
2023/06/24 01:07:36;;;;;;;10.25;7.07;;;18.00;71.20;;;;;;5024347;28;20033;-74
2023/06/24 01:10:07;;;;;;;11.07;7.35;;;18.00;71.30;;;;;;5008184;28;20018;-75
2023/06/24 01:12:38;;;;;;;11.10;6.80;;;17.90;71.40;;;;;;5003884;28;20543;-75
2023/06/24 01:15:06;;;;;;;10.50;6.63;;;17.80;71.30;;;;;;5011699;28;20038;-75
2023/06/24 01:17:54;;;;;;;9.63;6.93;;;17.80;71.60;;;;;;4993141;28;20031;-75
2023/06/24 01:20:52;;;;;;;9.80;7.32;;;17.80;71.80;;;;;;4983383;28;20026;-74
2023/06/24 01:23:41;;;;;;;10.18;6.63;;;17.70;72.00;;;;;;4992002;28;20443;-73
2023/06/24 01:26:33;;;;;;;10.32;7.00;;;17.70;72.10;;;;;;4990493;28;20046;-74
2023/06/24 01:29:24;;;;;;;10.10;6.40;;;17.60;72.30;;;;;;5012980;28;20033;-74
2023/06/24 01:32:21;;;;;;;9.98;6.43;;;17.60;72.40;;;;;;5012747;28;20038;-75
2023/06/24 01:34:57;;;;;;;10.30;7.35;;;17.60;72.60;;;;;;5003058;28;20076;-75
2023/06/24 01:37:37;;;;;;;10.15;6.88;;;17.50;72.90;;;;;;4989015;28;20049;-74
2023/06/24 01:40:12;;;;;;;9.98;7.30;;;17.40;72.90;;;;;;4982904;28;20091;-73
2023/06/24 01:42:44;;;;;;;10.02;7.07;;;17.40;72.80;;;;;;4979074;28;20053;-74
2023/06/24 01:45:14;;;;;;;10.77;7.20;;;17.30;73.00;;;;;;4978251;28;20026;-76
2023/06/24 01:47:43;;;;;;;10.23;7.57;;;17.20;73.20;;;;;;4979405;28;20039;-75
2023/06/24 01:50:12;;;;;;;11.07;8.25;;;17.20;73.50;;;;;;4977969;28;20052;-76
2023/06/24 01:52:43;;;;;;;10.20;7.50;;;17.30;73.70;;;;;;4978878;28;20034;-73
2023/06/24 01:55:11;;;;;;;11.93;8.10;;;17.30;73.90;;;;;;4980060;28;20031;-74
2023/06/24 01:57:40;;;;;;;12.48;7.63;;;17.30;73.90;;;;;;4973930;28;20046;-74
2023/06/24 02:00:08;;;;;;;11.80;8.00;;;17.20;73.80;;;;;;4976520;28;20029;-74
2023/06/24 02:02:36;;;;;;;12.40;8.20;;;17.20;73.90;;;;;;4977341;28;20028;-75
2023/06/24 02:05:04;;;;;;;10.98;7.45;;;17.30;74.00;;;;;;4980507;28;20089;-74
2023/06/24 02:07:31;;;;;;;11.10;7.72;;;17.20;74.10;;;;;;4978909;28;20077;-73
2023/06/24 02:09:58;;;;;;;12.93;8.10;;;17.20;74.20;;;;;;4980465;28;20108;-75
2023/06/24 02:12:26;;;;;;;10.48;7.95;;;17.20;74.30;;;;;;4983286;28;20041;-75
2023/06/24 02:14:54;;;;;;;10.85;8.23;;;17.10;74.40;;;;;;4984080;28;20500;-75
2023/06/24 02:17:20;;;;;;;11.25;7.72;;;17.10;74.50;;;;;;4975662;28;20177;-75
2023/06/24 02:19:48;;;;;;;11.68;8.65;;;17.10;74.50;;;;;;4977265;28;20022;-75
2023/06/24 02:22:15;;;;;;;11.25;8.63;;;17.00;74.70;;;;;;4974938;28;20050;-75
2023/06/24 02:24:41;;;;;;;11.32;7.93;;;17.00;75.00;;;;;;4978557;28;20023;-75
2023/06/24 02:27:08;;;;;;;11.80;8.20;;;16.90;75.00;;;;;;4996286;28;20549;-75
2023/06/24 02:29:35;;;;;;;11.40;9.00;;;16.90;75.00;;;;;;4988057;28;20351;-75
2023/06/24 02:32:01;;;;;;;11.18;8.00;;;16.90;75.30;;;;;;4971719;28;20104;-75
2023/06/24 02:34:28;;;;;;;11.77;8.45;;;16.90;75.40;;;;;;4972849;28;20480;-75
2023/06/24 02:36:53;;;;;;;11.60;8.40;;;16.80;75.50;;;;;;4977952;28;20073;-75
2023/06/24 02:39:19;;;;;;;11.10;8.25;;;16.90;75.70;;;;;;4978779;28;20494;-75
2023/06/24 02:41:47;;;;;;;15.65;8.93;;;16.80;75.60;;;;;;4973082;28;20030;-75
2023/06/24 02:44:13;;;;;;;10.93;8.40;;;16.70;75.80;;;;;;4979498;28;20026;-75
2023/06/24 02:46:41;;;;;;;10.77;8.23;;;16.70;76.00;;;;;;4973172;28;20085;-75
2023/06/24 02:49:09;;;;;;;13.05;8.43;;;16.60;76.00;;;;;;4979314;28;20035;-75
2023/06/24 02:51:36;;;;;;;12.65;9.10;;;16.70;76.50;;;;;;4978529;28;20125;-75
2023/06/24 02:54:02;;;;;;;12.25;9.18;;;16.60;76.50;;;;;;4981142;28;20362;-75
2023/06/24 02:56:29;;;;;;;11.98;8.35;;;16.60;76.90;;;;;;4989345;28;20046;-75
2023/06/24 02:58:55;;;;;;;11.15;8.60;;;16.60;76.90;;;;;;4986788;28;20152;-75
2023/06/24 03:01:25;;;;;;;12.07;8.82;;;16.50;76.90;;;;;;4978513;28;20034;-75
2023/06/24 03:03:54;;;;;;;11.82;8.55;;;16.50;76.90;;;;;;4991923;28;20546;-75
2023/06/24 03:06:21;;;;;;;11.85;8.98;;;16.50;77.00;;;;;;4978140;28;20129;-75
2023/06/24 03:08:47;;;;;;;14.68;9.40;;;16.50;77.00;;;;;;4970256;28;20030;-75
2023/06/24 03:11:14;;;;;;;12.48;9.55;;;16.50;77.10;;;;;;4985456;28;20041;-75
2023/06/24 03:13:40;;;;;;;11.25;9.07;;;16.50;77.20;;;;;;4979902;28;20667;-75
2023/06/24 03:16:06;;;;;;;11.63;8.45;;;16.50;77.40;;;;;;4976679;28;20018;-73
2023/06/24 03:18:32;;;;;;;13.50;9.27;;;16.50;77.50;;;;;;4980563;28;20051;-74
2023/06/24 03:20:58;;;;;;;11.32;8.60;;;16.50;77.60;;;;;;4978138;28;20197;-74
2023/06/24 03:23:24;;;;;;;11.73;8.68;;;16.40;77.70;;;;;;4976902;28;20033;-74
2023/06/24 03:25:49;;;;;;;12.63;9.18;;;16.50;77.70;;;;;;4974604;28;20104;-74
2023/06/24 03:28:15;;;;;;;14.98;8.82;;;16.40;77.80;;;;;;4978156;28;20494;-74
2023/06/24 03:30:41;;;;;;;12.88;9.27;;;16.40;77.90;;;;;;4975565;28;20026;-74
2023/06/24 03:33:06;;;;;;;13.18;9.88;;;16.40;78.00;;;;;;4969548;28;20105;-74
2023/06/24 03:35:32;;;;;;;14.90;10.07;;;16.40;77.90;;;;;;4969116;28;20527;-74
2023/06/24 03:37:58;;;;;;;14.20;9.52;;;16.40;78.00;;;;;;4978859;28;20233;-74
2023/06/24 03:40:24;;;;;;;11.30;9.00;;;16.40;78.10;;;;;;4969616;28;20027;-74
2023/06/24 03:42:50;;;;;;;11.88;9.30;;;16.40;78.00;;;;;;4970674;28;20061;-75
2023/06/24 03:45:15;;;;;;;12.95;9.50;;;16.40;78.00;;;;;;4972333;28;20483;-75
2023/06/24 03:47:41;;;;;;;13.43;9.90;;;16.40;77.80;;;;;;4981033;28;20033;-74
2023/06/24 03:50:07;;;;;;;12.65;9.75;;;16.50;77.90;;;;;;4968930;28;20023;-74
2023/06/24 03:52:34;;;;;;;13.52;10.07;;;16.50;77.80;;;;;;4969514;28;20046;-75
2023/06/24 03:55:01;;;;;;;13.32;9.90;;;16.50;77.60;;;;;;4970934;28;20038;-74
2023/06/24 03:57:27;;;;;;;12.20;9.52;;;16.50;77.60;;;;;;4980132;28;20395;-75
2023/06/24 03:59:52;;;;;;;13.18;10.00;;;16.50;77.80;;;;;;4975504;28;20034;-76
2023/06/24 04:02:18;;;;;;;13.23;10.27;;;16.40;77.80;;;;;;4978867;28;20043;-75
2023/06/24 04:04:43;;;;;;;13.95;9.77;;;16.40;77.60;;;;;;4981324;28;20188;-75
2023/06/24 04:07:09;;;;;;;13.57;9.85;;;16.50;77.80;;;;;;4972035;28;20584;-74
2023/06/24 04:09:35;;;;;;;14.32;9.73;;;16.50;78.10;;;;;;4975962;28;20437;-74
2023/06/24 04:12:01;;;;;;;14.45;10.27;;;16.50;77.70;;;;;;4983938;28;20030;-74
2023/06/24 04:14:28;;;;;;;13.40;9.88;;;16.50;77.90;;;;;;4985426;28;20169;-75
2023/06/24 04:16:54;;;;;;;14.75;10.35;;;16.50;77.90;;;;;;4982717;28;20300;-73
2023/06/24 04:19:19;;;;;;;12.90;10.10;;;16.50;78.00;;;;;;4985068;28;20166;-74
2023/06/24 04:21:45;;;;;;;14.02;10.35;;;16.50;78.00;;;;;;4984994;28;20384;-75
2023/06/24 04:24:11;;;;;;;12.88;10.07;;;16.60;78.00;;;;;;4978431;28;20050;-75
2023/06/24 04:26:36;;;;;;;13.50;9.68;;;16.60;77.90;;;;;;4972833;28;20041;-75
2023/06/24 04:29:02;;;;;;;13.85;9.85;;;16.70;77.80;;;;;;4981358;28;20030;-74
2023/06/24 04:31:28;;;;;;;14.48;10.75;;;16.70;77.70;;;;;;4975084;28;20034;-74
2023/06/24 04:33:53;;;;;;;13.52;9.93;;;16.70;77.40;;;;;;4973011;28;20041;-75
2023/06/24 04:36:19;;;;;;;14.00;9.88;;;16.70;77.80;;;;;;4980367;28;20842;-75
2023/06/24 04:38:45;;;;;;;17.15;11.45;;;16.70;77.70;;;;;;4977177;28;20037;-74
2023/06/24 04:41:11;;;;;;;15.88;10.38;;;16.80;77.80;;;;;;4988273;28;20022;-74
2023/06/24 04:43:36;;;;;;;13.30;10.45;;;16.70;77.90;;;;;;5008422;28;20323;-74
2023/06/24 04:46:02;;;;;;;14.65;10.55;;;16.80;78.00;;;;;;5004508;28;20072;-75
2023/06/24 04:48:28;;;;;;;15.25;10.82;;;16.80;78.00;;;;;;5000866;28;20029;-74
2023/06/24 04:50:54;;;;;;;16.45;11.00;;;16.90;77.80;;;;;;4988084;28;20098;-74
2023/06/24 04:53:21;;;;;;;15.63;11.93;;;16.90;77.90;;;;;;5001394;28;20029;-74
2023/06/24 04:55:47;;;;;;;14.90;11.95;;;17.00;77.80;;;;;;4994816;28;20230;-74
2023/06/24 04:58:12;;;;;;;17.88;11.75;;;17.00;77.70;;;;;;4994326;28;20042;-74
2023/06/24 05:00:38;;;;;;;15.45;11.52;;;17.10;77.80;;;;;;4990168;28;20034;-74
2023/06/24 05:03:04;;;;;;;17.17;11.98;;;17.10;77.60;;;;;;4998557;28;20038;-75
2023/06/24 05:05:30;;;;;;;15.88;11.63;;;17.10;77.60;;;;;;4986855;28;20289;-74
2023/06/24 05:07:56;;;;;;;16.42;11.23;;;17.30;77.80;;;;;;4999113;28;20029;-74
2023/06/24 05:10:21;;;;;;;14.55;10.48;;;18.10;76.30;;;;;;4994788;28;20058;-74
2023/06/24 05:12:47;;;;;;;15.05;9.75;;;20.00;71.50;;;;;;4991134;28;20095;-74
2023/06/24 05:15:13;;;;;;;12.90;8.85;;;21.80;64.30;;;;;;4992160;28;20058;-74
2023/06/24 05:17:39;;;;;;;12.30;9.30;;;23.20;59.20;;;;;;5001438;28;20069;-74
2023/06/24 05:20:06;;;;;;;12.15;8.93;;;24.40;54.70;;;;;;4991796;28;20109;-74
2023/06/24 05:22:31;;;;;;;12.38;8.52;;;24.60;54.10;;;;;;4998531;28;20105;-75
2023/06/24 05:24:57;;;;;;;12.50;9.18;;;25.40;51.20;;;;;;4993510;28;20120;-74
2023/06/24 05:27:23;;;;;;;11.90;8.93;;;26.10;50.20;;;;;;4994099;28;20066;-75
2023/06/24 05:29:48;;;;;;;12.75;8.77;;;26.30;48.30;;;;;;4992820;28;20097;-74
2023/06/24 05:32:14;;;;;;;12.60;9.23;;;26.60;48.40;;;;;;4983849;28;20077;-74
2023/06/24 05:34:40;;;;;;;11.48;8.95;;;27.00;46.80;;;;;;4983061;28;20034;-74
2023/06/24 05:37:05;;;;;;;11.07;8.85;;;27.30;46.90;;;;;;4990781;28;20045;-74
2023/06/24 05:39:31;;;;;;;11.55;9.40;;;27.30;46.60;;;;;;4994387;28;20030;-76
2023/06/24 05:41:57;;;;;;;11.48;8.48;;;27.20;46.90;;;;;;4994721;28;20038;-74
2023/06/24 05:44:23;;;;;;;11.23;8.07;;;27.50;46.50;;;;;;4982465;28;20034;-75
2023/06/24 05:46:49;;;;;;;12.88;9.23;;;27.60;45.80;;;;;;4991849;28;20475;-74
2023/06/24 05:49:14;;;;;;;12.48;9.82;;;26.90;46.90;;;;;;4995441;28;20200;-75
2023/06/24 05:51:40;;;;;;;11.40;8.18;;;26.60;47.50;;;;;;5000740;28;20509;-74
2023/06/24 05:54:07;;;;;;;11.13;8.32;;;26.40;48.90;;;;;;5000141;28;20073;-75
2023/06/24 05:56:33;;;;;;;13.55;10.20;;;26.10;49.10;;;;;;4993434;28;20480;-75
2023/06/24 05:58:59;;;;;;;14.55;10.00;;;25.40;50.90;;;;;;4988505;28;20483;-74
2023/06/24 06:01:25;;;;;;;13.38;10.52;;;24.10;53.70;;;;;;4994455;28;20034;-75
2023/06/24 06:03:50;;;;;;;16.90;11.60;;;22.90;57.30;;;;;;4987295;28;20096;-74
2023/06/24 06:06:16;;;;;;;14.55;11.05;;;22.10;60.10;;;;;;4990706;28;20034;-74
2023/06/24 06:08:42;;;;;;;13.25;9.63;;;21.90;61.10;;;;;;4992972;28;20037;-75
2023/06/24 06:11:07;;;;;;;13.20;11.05;;;21.60;62.80;;;;;;4985072;28;20546;-75
2023/06/24 06:13:33;;;;;;;12.77;11.05;;;21.40;63.90;;;;;;4995528;28;20050;-75
2023/06/24 06:15:59;;;;;;;13.05;11.43;;;21.30;64.10;;;;;;4986107;28;20030;-75
2023/06/24 06:18:24;;;;;;;15.73;12.45;;;21.20;65.00;;;;;;4988986;28;20026;-75
2023/06/24 06:20:50;;;;;;;14.07;10.98;;;21.20;64.80;;;;;;4988508;28;20135;-75
2023/06/24 06:23:16;;;;;;;15.90;11.55;;;21.20;64.70;;;;;;4986625;28;20477;-75
2023/06/24 06:25:42;;;;;;;14.48;11.23;;;21.20;65.50;;;;;;4986615;28;20027;-74
2023/06/24 06:28:08;;;;;;;15.98;12.02;;;21.30;65.20;;;;;;4992425;28;20498;-74
2023/06/24 06:30:34;;;;;;;14.75;10.52;;;21.30;64.70;;;;;;4995023;28;20514;-74
2023/06/24 06:32:59;;;;;;;13.63;11.25;;;21.30;65.60;;;;;;5012466;28;20465;-74
2023/06/24 06:35:25;;;;;;;14.75;11.32;;;21.50;65.00;;;;;;5010252;28;20065;-75
2023/06/24 06:37:54;;;;;;;14.23;11.52;;;21.60;65.30;;;;;;4987339;28;20443;-75
2023/06/24 06:40:20;;;;;;;14.77;11.27;;;21.60;65.00;;;;;;4998651;28;20523;-75
2023/06/24 06:42:46;;;;;;;13.88;11.02;;;21.60;64.90;;;;;;4980454;28;20057;-75
2023/06/24 06:45:12;;;;;;;16.45;12.32;;;21.90;64.50;;;;;;4990645;28;20286;-75
2023/06/24 06:47:38;;;;;;;16.45;11.48;;;21.90;64.20;;;;;;4985707;28;20371;-76
2023/06/24 06:50:04;;;;;;;14.88;11.73;;;22.10;63.80;;;;;;4997024;28;20029;-76
2023/06/24 06:52:29;;;;;;;14.45;10.88;;;22.20;63.70;;;;;;4993832;28;20648;-76
2023/06/24 06:54:55;;;;;;;15.20;11.02;;;22.30;63.50;;;;;;4995656;28;20029;-75
2023/06/24 06:57:21;;;;;;;13.57;10.98;;;22.40;63.70;;;;;;4990810;28;20052;-75
2023/06/24 06:59:47;;;;;;;14.43;11.27;;;22.20;63.30;;;;;;4997303;28;20458;-76
2023/06/24 07:02:12;;;;;;;13.95;11.13;;;22.10;63.60;;;;;;4983884;28;20128;-75
2023/06/24 07:04:38;;;;;;;12.98;10.02;;;22.10;64.30;;;;;;4993117;28;20035;-75
2023/06/24 07:07:04;;;;;;;14.00;9.85;;;22.20;64.10;;;;;;4977428;28;20050;-75
2023/06/24 07:09:30;;;;;;;13.55;10.10;;;22.30;63.90;;;;;;5003075;28;20025;-76
2023/06/24 07:11:55;;;;;;;14.13;9.95;;;22.50;63.30;;;;;;4994683;28;20180;-76
2023/06/24 07:14:21;;;;;;;16.05;10.95;;;22.70;62.20;;;;;;4993544;28;20049;-75
2023/06/24 07:16:46;;;;;;;13.05;10.50;;;22.70;62.00;;;;;;4972624;28;20094;-76
2023/06/24 07:19:12;;;;;;;14.48;10.73;;;22.60;62.90;;;;;;4988292;28;20546;-76
2023/06/24 07:21:39;;;;;;;13.00;10.23;;;22.60;62.40;;;;;;4978911;28;20094;-76
2023/06/24 07:24:05;;;;;;;14.77;10.63;;;22.70;62.40;;;;;;4985064;28;20547;-76
2023/06/24 07:26:31;;;;;;;13.95;10.18;;;22.70;62.60;;;;;;4985489;28;20057;-76
2023/06/24 07:29:00;;;;;;;14.00;10.88;;;22.90;62.20;;;;;;4983363;28;20042;-75
2023/06/24 07:31:26;;;;;;;12.40;9.35;;;23.00;62.40;;;;;;4990320;28;20220;-76
2023/06/24 07:33:51;;;;;;;16.52;11.18;;;23.10;61.70;;;;;;4989970;28;20110;-76
2023/06/24 07:36:17;;;;;;;14.75;10.65;;;23.20;61.90;;;;;;4980209;28;20354;-74
2023/06/24 07:38:43;;;;;;;15.75;10.85;;;23.20;61.40;;;;;;4985601;28;20482;-74
2023/06/24 07:41:08;;;;;;;15.32;10.65;;;23.20;61.20;;;;;;4984931;28;20133;-74
2023/06/24 07:43:34;;;;;;;13.07;10.48;;;23.50;61.30;;;;;;4977060;28;20023;-74
2023/06/24 07:46:00;;;;;;;13.65;10.73;;;23.60;60.40;;;;;;4986146;28;20444;-75
2023/06/24 07:48:25;;;;;;;13.23;9.77;;;23.80;59.90;;;;;;4973376;28;21269;-74
2023/06/24 07:50:51;;;;;;;13.90;11.20;;;23.90;59.80;;;;;;4971626;28;20022;-75
2023/06/24 07:53:17;;;;;;;14.43;10.02;;;23.80;60.40;;;;;;4976399;28;20037;-74
2023/06/24 07:55:42;;;;;;;13.88;10.82;;;23.80;60.40;;;;;;4992646;28;20494;-75
2023/06/24 07:58:08;;;;;;;12.40;10.38;;;24.00;60.10;;;;;;4974447;28;20030;-75
2023/06/24 08:00:34;;;;;;;13.20;10.70;;;24.10;59.10;;;;;;4980984;28;20105;-76
2023/06/24 08:02:59;;;;;;;16.25;10.88;;;24.30;59.10;;;;;;4979148;28;20073;-75
2023/06/24 08:05:26;;;;;;;13.80;10.30;;;24.10;58.80;;;;;;4981149;28;20023;-75
2023/06/24 08:07:52;;;;;;;12.27;10.15;;;24.10;58.60;;;;;;4983751;28;20036;-75
2023/06/24 08:10:18;;;;;;;14.57;10.43;;;24.40;58.50;;;;;;4985525;28;20134;-75
2023/06/24 08:12:43;;;;;;;14.15;10.40;;;24.50;58.10;;;;;;4980898;28;20030;-76
2023/06/24 08:15:10;;;;;;;15.15;11.95;;;24.60;57.60;;;;;;4983603;28;20058;-76
2023/06/24 08:17:35;;;;;;;14.95;10.70;;;24.60;58.90;;;;;;4985886;28;20499;-77
2023/06/24 08:20:03;;;;;;;15.45;11.73;;;24.60;58.40;;;;;;4991417;28;20045;-75
2023/06/24 08:22:28;;;;;;;12.32;10.35;;;24.30;59.80;;;;;;4988953;28;20202;-74
2023/06/24 08:24:54;;;;;;;17.52;11.30;;;24.30;59.20;;;;;;4978824;28;20117;-75
2023/06/24 08:27:20;;;;;;;12.77;10.05;;;24.70;56.90;;;;;;4988789;28;20082;-75
2023/06/24 08:29:45;;;;;;;12.18;8.32;;;24.90;57.50;;;;;;4989247;28;20018;-75
2023/06/24 08:32:11;;;;;;;12.60;8.88;;;25.20;57.30;;;;;;4994157;28;20038;-75
2023/06/24 08:34:37;;;;;;;11.85;9.23;;;25.50;55.40;;;;;;4987950;28;20110;-74
2023/06/24 08:37:03;;;;;;;12.93;10.52;;;25.60;55.20;;;;;;4987064;28;20080;-74
2023/06/24 08:39:29;;;;;;;12.20;8.95;;;25.50;55.10;;;;;;4981165;28;20093;-74
2023/06/24 08:41:55;;;;;;;12.52;9.60;;;25.30;56.60;;;;;;4986141;28;20039;-76
2023/06/24 08:44:20;;;;;;;11.45;9.65;;;25.40;56.20;;;;;;4978645;28;20395;-76
2023/06/24 08:46:47;;;;;;;12.85;10.40;;;25.30;56.20;;;;;;4994566;28;20052;-76
2023/06/24 08:49:17;;;;;;;12.77;10.20;;;25.20;56.70;;;;;;4992789;28;20026;-76
2023/06/24 08:51:46;;;;;;;14.15;10.98;;;25.20;56.40;;;;;;5002041;28;20049;-76
2023/06/24 08:54:15;;;;;;;14.60;10.80;;;25.30;55.70;;;;;;4992048;28;20053;-76
2023/06/24 08:56:41;;;;;;;12.65;10.65;;;25.40;56.10;;;;;;4988065;28;20266;-73
2023/06/24 08:59:06;;;;;;;14.75;11.13;;;25.70;56.10;;;;;;4988610;28;20031;-74
2023/06/24 09:01:32;;;;;;;11.98;10.20;;;25.70;55.10;;;;;;4988168;28;20108;-75
2023/06/24 09:03:58;;;;;;;13.95;11.32;;;25.80;55.40;;;;;;4991785;28;20038;-76
2023/06/24 09:06:24;;;;;;;13.57;9.77;;;25.60;55.00;;;;;;4984187;28;20452;-71
2023/06/24 09:08:56;;;;;;;12.25;9.23;;;25.60;56.30;;;;;;4998210;28;20030;-71
2023/06/24 09:11:28;;;;;;;14.02;10.65;;;26.00;55.30;;;;;;4981114;28;20041;-71
2023/06/24 09:13:57;;;;;;;14.13;11.27;;;26.00;55.00;;;;;;4988089;28;20054;-71
2023/06/24 09:16:23;;;;;;;13.05;9.75;;;25.90;54.40;;;;;;4981431;28;20046;-71
2023/06/24 09:18:50;;;;;;;12.07;9.38;;;25.70;55.30;;;;;;4987147;28;20050;-70
2023/06/24 09:21:27;;;;;;;12.57;10.00;;;25.60;56.00;;;;;;4989911;28;20074;-71
2023/06/24 09:23:57;;;;;;;15.25;11.20;;;26.00;53.80;;;;;;4987023;28;20624;-70
2023/06/24 09:26:27;;;;;;;14.55;12.55;;;26.20;54.00;;;;;;4992570;28;20281;-71
2023/06/24 09:28:54;;;;;;;14.30;11.65;;;26.10;55.20;;;;;;4989676;28;20065;-71
2023/06/24 09:31:19;;;;;;;14.68;10.57;;;26.30;55.50;;;;;;4980871;28;20066;-71
2023/06/24 09:33:46;;;;;;;13.68;10.25;;;26.30;54.10;;;;;;4991567;28;20129;-71
2023/06/24 09:36:15;;;;;;;12.55;9.15;;;26.40;54.00;;;;;;4987345;28;20142;-71
2023/06/24 09:38:44;;;;;;;14.38;9.80;;;26.50;52.40;;;;;;4989677;28;20026;-71
2023/06/24 09:41:10;;;;;;;11.18;8.80;;;26.50;52.30;;;;;;4985587;28;20093;-73
2023/06/24 09:43:36;;;;;;;11.65;9.60;;;26.80;52.70;;;;;;4991187;28;20034;-73
2023/06/24 09:46:04;;;;;;;13.02;9.55;;;27.00;50.00;;;;;;4994392;28;20535;-73
2023/06/24 09:48:30;;;;;;;13.32;9.45;;;27.00;51.00;;;;;;4989806;28;20022;-72
2023/06/24 09:51:00;;;;;;;13.80;10.70;;;27.10;52.40;;;;;;4991794;28;20026;-72
2023/06/24 09:53:35;;;;;;;15.55;12.52;;;27.10;52.40;;;;;;4984265;28;20100;-73
2023/06/24 09:56:06;;;;;;;13.07;9.75;;;26.90;51.80;;;;;;4981256;28;20072;-73
2023/06/24 09:58:37;;;;;;;14.05;9.05;;;26.90;52.60;;;;;;4980710;28;20521;-73
2023/06/24 10:01:06;;;;;;;13.43;9.57;;;26.60;52.00;;;;;;4977737;28;20046;-72
2023/06/24 10:03:40;;;;;;;10.52;7.20;;;26.60;51.70;;;;;;4983251;28;20030;-73
2023/06/24 10:06:07;;;;;;;7.18;4.70;;;26.80;51.40;;;;;;4979106;28;20538;-73
2023/06/24 10:08:34;;;;;;;7.78;4.80;;;27.30;48.70;;;;;;4988479;28;20038;-73
2023/06/24 10:11:01;;;;;;;7.97;5.38;;;27.40;46.40;;;;;;4986323;28;20030;-73
2023/06/24 10:13:27;;;;;;;9.65;5.10;;;27.60;47.10;;;;;;4986706;28;20574;-73
2023/06/24 10:15:55;;;;;;;8.75;5.05;;;27.80;46.20;;;;;;4980979;28;20427;-73
2023/06/24 10:18:35;;;;;;;10.35;6.65;;;27.60;45.30;;;;;;4982784;28;20041;-73
2023/06/24 10:21:02;;;;;;;6.78;3.95;;;27.70;44.90;;;;;;4982645;28;20061;-73
2023/06/24 10:24:04;;;;;;;9.30;4.82;;;27.70;44.30;;;;;;4983706;28;20423;-72
2023/06/24 10:26:35;;;;;;;8.20;3.97;;;27.90;43.50;;;;;;5013991;28;20034;-72
2023/06/24 10:29:06;;;;;;;7.05;4.03;;;28.20;43.70;;;;;;4984423;28;20357;-72
2023/06/24 10:31:55;;;;;;;8.48;4.90;;;28.40;42.70;;;;;;4985321;28;20415;-72
2023/06/24 10:34:32;;;;;;;7.90;5.28;;;27.90;43.70;;;;;;4985203;28;20049;-72
2023/06/24 10:37:09;;;;;;;7.07;4.72;;;27.90;45.40;;;;;;4984511;28;20046;-72
2023/06/24 10:39:35;;;;;;;7.75;4.60;;;28.20;45.10;;;;;;4985419;28;20171;-72
2023/06/24 10:42:23;;;;;;;7.85;4.68;;;28.10;44.50;;;;;;4990050;28;20471;-72
2023/06/24 10:44:50;;;;;;;7.53;3.97;;;28.60;42.70;;;;;;4998307;28;20022;-72
2023/06/24 10:47:16;;;;;;;7.63;4.30;;;28.80;42.50;;;;;;4982669;28;20315;-72
2023/06/24 10:49:41;;;;;;;7.93;4.30;;;28.50;42.60;;;;;;4983261;28;20022;-71
2023/06/24 10:52:11;;;;;;;6.43;4.00;;;28.30;43.20;;;;;;4985460;28;20486;-71
2023/06/24 10:54:41;;;;;;;8.13;4.30;;;28.20;43.80;;;;;;4982646;28;20027;-71
2023/06/24 10:57:07;;;;;;;9.02;4.10;;;28.00;42.70;;;;;;4985545;28;20026;-72
2023/06/24 10:59:41;;;;;;;8.23;4.38;;;28.10;45.00;;;;;;5001465;28;20026;-72
2023/06/24 11:02:09;;;;;;;6.55;3.42;;;28.50;43.50;;;;;;4996109;28;20048;-72
2023/06/24 11:04:58;;;;;;;7.30;4.38;;;28.40;42.20;;;;;;5012038;28;20057;-72
2023/06/24 11:07:25;;;;;;;6.50;3.10;;;28.40;42.40;;;;;;4986672;28;20042;-72
2023/06/24 11:09:52;;;;;;;5.65;2.47;;;28.60;42.20;;;;;;4985257;28;20539;-73
2023/06/24 11:12:19;;;;;;;6.43;3.65;;;28.60;38.90;;;;;;4989316;28;20037;-71
2023/06/24 11:14:45;;;;;;;8.00;3.30;;;29.00;39.50;;;;;;5006285;28;20111;-71
2023/06/24 11:17:11;;;;;;;6.57;3.70;;;29.30;40.20;;;;;;5003406;28;20081;-71
2023/06/24 11:19:39;;;;;;;5.75;3.17;;;29.40;39.40;;;;;;5007443;28;20127;-71
2023/06/24 11:22:08;;;;;;;4.95;2.70;;;29.50;39.20;;;;;;4995667;28;20026;-72
2023/06/24 11:24:34;;;;;;;6.32;3.25;;;29.50;39.40;;;;;;4994130;28;20039;-72
2023/06/24 11:27:00;;;;;;;6.13;3.60;;;29.30;40.50;;;;;;4983962;28;20040;-72
2023/06/24 11:29:32;;;;;;;8.98;5.05;;;29.50;39.30;;;;;;4974529;28;20041;-72
2023/06/24 11:31:59;;;;;;;6.43;3.70;;;28.80;40.50;;;;;;4976431;28;20039;-71
2023/06/24 11:34:24;;;;;;;6.00;3.47;;;28.70;41.10;;;;;;4970655;28;20033;-72
2023/06/24 11:36:50;;;;;;;6.30;3.55;;;28.90;39.90;;;;;;4976072;28;20395;-72
2023/06/24 11:39:27;;;;;;;5.97;2.88;;;29.00;40.00;;;;;;4997431;28;20048;-72
2023/06/24 11:41:53;;;;;;;5.63;3.35;;;29.20;39.70;;;;;;4991826;28;20124;-73
2023/06/24 11:44:24;;;;;;;6.55;3.92;;;29.30;37.10;;;;;;4984594;28;20390;-74
2023/06/24 11:46:50;;;;;;;8.15;4.00;;;29.50;36.00;;;;;;4989002;28;20065;-71
2023/06/24 11:49:16;;;;;;;7.97;4.90;;;29.60;37.20;;;;;;4996163;28;20035;-71
2023/06/24 11:51:52;;;;;;;7.10;3.85;;;29.10;39.60;;;;;;4997447;28;20072;-71
2023/06/24 11:54:19;;;;;;;5.30;3.10;;;29.30;39.00;;;;;;4987003;28;20033;-72
2023/06/24 11:56:53;;;;;;;6.65;3.15;;;29.50;37.40;;;;;;4983909;28;20133;-72
2023/06/24 11:59:27;;;;;;;7.20;3.53;;;29.50;36.80;;;;;;4979715;28;20056;-72
2023/06/24 12:01:57;;;;;;;8.95;6.20;;;29.70;38.20;;;;;;4989509;28;20462;-73
2023/06/24 12:04:30;;;;;;;9.75;6.15;;;29.90;38.80;;;;;;5001008;28;20031;-72
2023/06/24 12:06:59;;;;;;;7.57;4.68;;;30.00;36.90;;;;;;4996717;28;20038;-72
2023/06/24 12:09:25;;;;;;;8.20;4.13;;;29.80;38.10;;;;;;4996593;28;20097;-72
2023/06/24 12:11:52;;;;;;;5.25;3.00;;;29.70;38.30;;;;;;5003312;28;20653;-72
2023/06/24 12:14:18;;;;;;;7.38;3.53;;;29.70;36.60;;;;;;5018043;28;20556;-72
2023/06/24 12:16:44;;;;;;;7.88;4.50;;;30.00;38.10;;;;;;5015065;28;20095;-72
2023/06/24 12:19:10;;;;;;;6.38;3.33;;;30.10;38.30;;;;;;5015397;28;20022;-73
2023/06/24 12:21:36;;;;;;;4.80;3.08;;;29.90;38.00;;;;;;5008318;28;20039;-73
2023/06/24 12:24:02;;;;;;;5.95;2.78;;;30.10;37.00;;;;;;5010462;28;20035;-73
2023/06/24 12:26:28;;;;;;;5.40;3.15;;;30.00;36.10;;;;;;5014135;28;20441;-72
2023/06/24 12:28:56;;;;;;;5.55;3.30;;;30.10;36.10;;;;;;5013436;28;20018;-72
2023/06/24 12:31:22;;;;;;;6.07;3.50;;;30.30;35.00;;;;;;5004442;28;20712;-72
2023/06/24 12:33:48;;;;;;;6.55;3.03;;;29.80;35.40;;;;;;5004486;28;20044;-72
2023/06/24 12:36:14;;;;;;;7.03;4.18;;;29.80;35.80;;;;;;5009567;28;20104;-71
2023/06/24 12:38:40;;;;;;;8.38;4.82;;;30.10;36.60;;;;;;5006608;28;20026;-72